createdAt,value
2022-08-21T00:00:43.644Z,18.69
2022-08-21T00:03:33.215Z,18.82
2022-08-21T00:06:07.023Z,18.80
2022-08-21T00:08:51.478Z,18.76
2022-08-21T00:11:28.013Z,18.63
2022-08-21T00:14:07.580Z,18.67
2022-08-21T00:16:48.007Z,18.62
2022-08-21T00:19:26.562Z,18.62
2022-08-21T00:22:09.960Z,18.69
2022-08-21T00:24:50.869Z,18.70
2022-08-21T00:27:30.733Z,18.69
2022-08-21T00:30:09.543Z,18.67
2022-08-21T00:32:42.855Z,18.58
2022-08-21T00:35:25.489Z,18.51
2022-08-21T00:38:02.875Z,18.57
2022-08-21T00:40:42.882Z,18.55
2022-08-21T00:43:21.939Z,18.49
2022-08-21T00:46:05.661Z,18.44
2022-08-21T00:48:46.570Z,18.54
2022-08-21T00:51:29.438Z,18.56
2022-08-21T00:54:06.736Z,18.47
2022-08-21T00:56:56.852Z,18.45
2022-08-21T00:59:45.368Z,18.51
2022-08-21T01:02:23.186Z,18.50
2022-08-21T01:04:55.230Z,18.49
2022-08-21T01:07:35.620Z,18.38
2022-08-21T01:10:18.798Z,18.39
2022-08-21T01:12:56.251Z,18.38
2022-08-21T01:15:33.435Z,18.41
2022-08-21T01:18:22.218Z,18.50
2022-08-21T01:21:17.731Z,18.33
2022-08-21T01:24:03.252Z,18.39
2022-08-21T01:26:38.775Z,18.37
2022-08-21T01:29:42.432Z,18.33
2022-08-21T01:32:24.409Z,18.39
2022-08-21T01:34:58.683Z,18.43
2022-08-21T01:37:25.580Z,18.34
2022-08-21T01:40:01.353Z,18.23
2022-08-21T01:42:39.771Z,18.18
2022-08-21T01:45:24.071Z,18.27
2022-08-21T01:48:07.969Z,18.19
2022-08-21T01:50:37.231Z,18.25
2022-08-21T01:53:12.448Z,18.20
2022-08-21T01:55:50.278Z,18.08
2022-08-21T01:58:29.214Z,18.09
2022-08-21T02:01:11.614Z,18.10
2022-08-21T02:03:54.626Z,18.10
2022-08-21T02:06:26.573Z,18.14
2022-08-21T02:09:05.550Z,18.11
2022-08-21T02:11:48.992Z,18.02
2022-08-21T02:14:28.646Z,18.09
2022-08-21T02:17:12.498Z,18.00
2022-08-21T02:19:54.115Z,17.99
2022-08-21T02:22:32.851Z,18.02
2022-08-21T02:25:16.549Z,17.94
2022-08-21T02:28:01.918Z,17.92
2022-08-21T02:30:40.044Z,17.99
2022-08-21T02:33:21.917Z,17.96
2022-08-21T02:35:58.636Z,18.01
2022-08-21T02:38:45.760Z,17.91
2022-08-21T02:41:22.312Z,18.00
2022-08-21T02:44:00.586Z,17.94
2022-08-21T02:46:39.446Z,17.94
2022-08-21T02:49:20.443Z,18.03
2022-08-21T02:52:01.865Z,17.99
2022-08-21T02:54:36.688Z,17.96
2022-08-21T02:57:17.081Z,17.93
2022-08-21T02:59:56.869Z,17.92
2022-08-21T03:02:46.164Z,17.92
2022-08-21T03:05:24.603Z,17.95
2022-08-21T03:08:03.471Z,17.92
2022-08-21T03:10:44.246Z,17.91
2022-08-21T03:13:22.351Z,17.91
2022-08-21T03:16:02.696Z,17.90
2022-08-21T03:18:37.955Z,17.89
2022-08-21T03:21:19.607Z,17.84
2022-08-21T03:23:55.297Z,17.95
2022-08-21T03:26:36.435Z,17.88
2022-08-21T03:29:20.975Z,17.96
2022-08-21T03:31:51.551Z,17.98
2022-08-21T03:34:27.771Z,17.84
2022-08-21T03:37:08.775Z,17.86
2022-08-21T03:39:52.782Z,17.95
2022-08-21T03:42:27.960Z,17.90
2022-08-21T03:45:09.577Z,17.87
2022-08-21T03:48:01.422Z,17.90
2022-08-21T03:50:43.074Z,17.91
2022-08-21T03:53:24.131Z,17.93
2022-08-21T03:55:59.476Z,18.00
2022-08-21T03:58:34.829Z,18.00
2022-08-21T04:01:12.506Z,18.01
2022-08-21T04:03:48.454Z,17.99
2022-08-21T04:06:34.551Z,18.08
2022-08-21T04:09:10.818Z,18.14
2022-08-21T04:11:50.916Z,18.11
2022-08-21T04:14:29.952Z,18.10
2022-08-21T04:17:18.894Z,18.02
2022-08-21T04:20:03.082Z,18.17
2022-08-21T04:22:49.089Z,18.12
2022-08-21T04:25:27.611Z,18.13
2022-08-21T04:28:06.587Z,18.13
2022-08-21T04:30:45.044Z,18.08
2022-08-21T04:33:19.788Z,18.15
2022-08-21T04:35:58.030Z,18.27
2022-08-21T04:38:44.660Z,18.25
2022-08-21T04:41:28.048Z,18.30
2022-08-21T04:44:00.645Z,18.43
2022-08-21T04:46:39.452Z,18.44
2022-08-21T04:49:23.136Z,18.39
2022-08-21T04:51:59.596Z,18.33
2022-08-21T04:54:37.909Z,18.39
2022-08-21T04:57:19.856Z,18.37
2022-08-21T04:59:57.996Z,18.39
2022-08-21T05:02:39.428Z,18.35
2022-08-21T05:05:18.308Z,18.29
2022-08-21T05:07:57.102Z,18.35
2022-08-21T05:10:33.577Z,18.36
2022-08-21T05:13:01.657Z,18.44
2022-08-21T05:15:40.456Z,18.47
2022-08-21T05:18:24.063Z,18.45
2022-08-21T05:21:10.111Z,18.49
2022-08-21T05:23:48.021Z,18.46
2022-08-21T05:26:26.195Z,18.60
2022-08-21T05:29:02.133Z,18.62
2022-08-21T05:31:35.581Z,18.59
2022-08-21T05:34:10.620Z,18.63
2022-08-21T05:37:07.373Z,18.73
2022-08-21T05:40:04.546Z,18.65
2022-08-21T05:42:55.505Z,18.68
2022-08-21T05:45:43.491Z,18.82
2022-08-21T05:48:28.881Z,18.75
2022-08-21T05:51:10.802Z,18.70
2022-08-21T05:53:54.186Z,18.69
2022-08-21T05:56:32.554Z,18.79
2022-08-21T05:59:12.912Z,18.94
2022-08-21T06:01:54.622Z,18.79
2022-08-21T06:04:45.409Z,18.82
2022-08-21T06:07:26.339Z,18.82
2022-08-21T06:10:09.681Z,18.88
2022-08-21T06:12:53.677Z,18.75
2022-08-21T06:15:28.729Z,18.75
2022-08-21T06:18:11.509Z,18.65
2022-08-21T06:20:49.560Z,18.69
2022-08-21T06:23:33.146Z,18.72
2022-08-21T06:26:17.580Z,18.71
2022-08-21T06:28:51.566Z,18.75
2022-08-21T06:31:29.587Z,18.69
2022-08-21T06:34:08.327Z,18.77
2022-08-21T06:36:40.539Z,18.81
2022-08-21T06:39:24.686Z,18.79
2022-08-21T06:42:10.215Z,18.95
2022-08-21T06:44:53.547Z,19.04
2022-08-21T06:47:34.579Z,19.02
2022-08-21T06:50:10.250Z,19.11
2022-08-21T06:53:04.956Z,19.13
2022-08-21T06:55:40.594Z,19.21
2022-08-21T06:58:16.506Z,19.31
2022-08-21T07:01:02.912Z,19.24
2022-08-21T07:03:46.578Z,19.28
2022-08-21T07:06:21.710Z,19.46
2022-08-21T07:09:05.821Z,19.42
2022-08-21T07:11:47.733Z,19.57
2022-08-21T07:14:28.841Z,19.58
2022-08-21T07:17:08.111Z,19.65
2022-08-21T07:19:48.346Z,19.66
2022-08-21T07:22:25.514Z,19.43
2022-08-21T07:25:02.521Z,19.59
2022-08-21T07:27:45.656Z,19.55
2022-08-21T07:30:22.491Z,19.67
2022-08-21T07:33:03.036Z,19.71
2022-08-21T07:35:37.832Z,19.63
2022-08-21T07:38:18.608Z,19.79
2022-08-21T07:41:02.915Z,19.86
2022-08-21T07:43:45.917Z,19.96
2022-08-21T07:46:32.767Z,19.98
2022-08-21T07:49:09.916Z,20.14
2022-08-21T07:51:47.847Z,20.20
2022-08-21T07:54:33.301Z,20.16
2022-08-21T07:57:18.805Z,20.14
2022-08-21T07:59:59.910Z,20.12
2022-08-21T08:02:55.643Z,20.24
2022-08-21T08:05:33.814Z,20.18
2022-08-21T08:08:11.335Z,20.34
2022-08-21T08:10:47.809Z,20.42
2022-08-21T08:13:34.584Z,20.46
2022-08-21T08:16:07.345Z,20.53
2022-08-21T08:18:44.644Z,20.55
2022-08-21T08:21:21.117Z,20.63
2022-08-21T08:23:54.004Z,20.83
2022-08-21T08:26:38.548Z,20.91
2022-08-21T08:29:22.549Z,21.14
2022-08-21T08:32:00.566Z,21.15
2022-08-21T08:34:41.343Z,21.12
2022-08-21T08:37:25.447Z,21.22
2022-08-21T08:40:12.677Z,21.18
2022-08-21T08:42:51.677Z,21.17
2022-08-21T08:45:27.201Z,21.25
2022-08-21T08:48:14.412Z,21.33
2022-08-21T08:51:15.408Z,21.38
2022-08-21T08:54:00.716Z,21.37
2022-08-21T08:56:42.393Z,21.12
2022-08-21T08:59:45.757Z,21.31
2022-08-21T09:02:24.129Z,21.29
2022-08-21T09:05:01.111Z,21.29
2022-08-21T09:07:48.243Z,21.39
2022-08-21T09:10:38.492Z,21.29
2022-08-21T09:13:38.493Z,21.30
2022-08-21T09:17:07.310Z,21.55
2022-08-21T09:20:06.294Z,21.58
2022-08-21T09:22:54.061Z,21.61
2022-08-21T09:25:36.907Z,21.63
2022-08-21T09:28:17.523Z,21.71
2022-08-21T09:31:03.548Z,21.83
2022-08-21T09:33:44.840Z,21.84
2022-08-21T09:36:39.349Z,21.83
2022-08-21T09:39:24.366Z,21.82
2022-08-21T09:42:07.762Z,21.88
2022-08-21T09:44:44.971Z,22.00
2022-08-21T09:47:33.145Z,21.70
2022-08-21T09:50:27.834Z,21.59
2022-08-21T09:53:14.726Z,21.66
2022-08-21T09:56:35.649Z,21.61
2022-08-21T09:59:25.670Z,21.40
2022-08-21T10:02:04.631Z,21.15
2022-08-21T10:04:47.007Z,21.35
2022-08-21T10:07:26.363Z,21.56
2022-08-21T10:10:35.442Z,21.85
2022-08-21T10:13:35.748Z,22.14
2022-08-21T10:16:46.395Z,22.26
2022-08-21T10:19:41.999Z,22.21
2022-08-21T10:22:31.040Z,22.26
2022-08-21T10:25:15.184Z,22.16
2022-08-21T10:28:13.731Z,21.94
2022-08-21T10:31:12.695Z,22.02
2022-08-21T10:33:59.944Z,21.94
2022-08-21T10:37:12.573Z,21.92
2022-08-21T10:40:00.978Z,21.95
2022-08-21T10:42:52.698Z,22.09
2022-08-21T10:45:54.239Z,22.23
2022-08-21T10:48:37.701Z,22.36
2022-08-21T10:51:36.846Z,22.48
2022-08-21T10:54:35.571Z,22.68
2022-08-21T10:57:32.384Z,23.15
2022-08-21T11:00:16.767Z,23.40
2022-08-21T11:02:58.410Z,23.10
2022-08-21T11:05:50.117Z,23.06
2022-08-21T11:09:00.639Z,22.95
2022-08-21T11:11:53.885Z,22.66
2022-08-21T11:14:50.766Z,22.62
2022-08-21T11:17:33.932Z,22.50
2022-08-21T11:20:32.025Z,22.56
2022-08-21T11:23:20.361Z,22.50
2022-08-21T11:26:01.958Z,22.52
2022-08-21T11:28:55.906Z,22.66
2022-08-21T11:31:42.322Z,22.90
2022-08-21T11:34:39.699Z,22.90
2022-08-21T11:37:35.339Z,22.97
2022-08-21T11:40:25.652Z,22.84
2022-08-21T11:43:23.920Z,22.88
2022-08-21T11:46:08.191Z,22.90
2022-08-21T11:49:03.185Z,22.88
2022-08-21T11:51:53.429Z,22.86
2022-08-21T11:54:37.269Z,22.83
2022-08-21T11:57:17.020Z,22.63
2022-08-21T12:00:13.887Z,22.74
2022-08-21T12:02:58.695Z,22.83
2022-08-21T12:05:49.438Z,22.64
2022-08-21T12:08:44.174Z,22.60
2022-08-21T12:11:30.589Z,22.81
2022-08-21T12:14:21.879Z,22.80
2022-08-21T12:17:05.134Z,22.84
2022-08-21T12:19:44.763Z,23.00
2022-08-21T12:22:23.573Z,23.01
2022-08-21T12:25:21.021Z,23.03
2022-08-21T12:28:10.265Z,23.15
2022-08-21T12:30:54.904Z,23.27
2022-08-21T12:33:43.232Z,23.32
2022-08-21T12:36:22.349Z,23.31
2022-08-21T12:39:06.144Z,22.95
2022-08-21T12:41:53.614Z,23.08
2022-08-21T12:44:42.849Z,23.12
2022-08-21T12:47:34.323Z,23.07
2022-08-21T12:50:17.350Z,23.33
2022-08-21T12:53:25.152Z,23.33
2022-08-21T12:56:10.071Z,23.23
2022-08-21T12:59:01.697Z,23.46
2022-08-21T13:01:42.152Z,23.44
2022-08-21T13:04:21.394Z,23.43
2022-08-21T13:07:06.425Z,23.51
2022-08-21T13:10:00.192Z,23.55
2022-08-21T13:12:36.569Z,23.43
2022-08-21T13:15:15.176Z,23.70
2022-08-21T13:18:11.081Z,23.64
2022-08-21T13:20:58.121Z,23.75
2022-08-21T13:23:36.721Z,23.69
2022-08-21T13:26:21.831Z,23.77
2022-08-21T13:29:13.944Z,23.89
2022-08-21T13:32:05.387Z,23.56
2022-08-21T13:34:53.924Z,23.52
2022-08-21T13:37:33.558Z,23.66
2022-08-21T13:40:14.088Z,23.83
2022-08-21T13:42:49.049Z,23.59
2022-08-21T13:45:42.835Z,23.78
2022-08-21T13:48:21.194Z,23.83
2022-08-21T13:50:53.792Z,23.84
2022-08-21T13:53:37.473Z,23.82
2022-08-21T13:56:45.555Z,23.77
2022-08-21T13:59:39.059Z,23.71
2022-08-21T14:02:23.535Z,23.87
2022-08-21T14:05:12.195Z,23.71
2022-08-21T14:07:49.104Z,23.79
2022-08-21T14:10:31.434Z,23.78
2022-08-21T14:13:22.379Z,23.69
2022-08-21T14:16:04.593Z,23.60
2022-08-21T14:18:47.026Z,23.46
2022-08-21T14:21:35.399Z,23.35
2022-08-21T14:24:15.438Z,23.50
2022-08-21T14:27:05.077Z,23.41
2022-08-21T14:29:48.546Z,23.44
2022-08-21T14:32:34.100Z,23.44
2022-08-21T14:35:11.971Z,23.46
2022-08-21T14:37:53.394Z,23.39
2022-08-21T14:40:46.763Z,23.23
2022-08-21T14:43:21.599Z,23.22
2022-08-21T14:45:57.144Z,23.04
2022-08-21T14:48:30.739Z,23.09
2022-08-21T14:51:05.908Z,22.99
2022-08-21T14:53:46.361Z,22.88
2022-08-21T14:56:24.902Z,22.96
2022-08-21T14:59:06.578Z,22.96
2022-08-21T15:01:45.067Z,22.90
2022-08-21T15:04:29.481Z,22.80
2022-08-21T15:07:05.623Z,22.53
2022-08-21T15:09:49.694Z,22.51
2022-08-21T15:12:24.541Z,22.41
2022-08-21T15:15:05.193Z,22.36
2022-08-21T15:17:47.706Z,22.26
2022-08-21T15:20:26.589Z,22.29
2022-08-21T15:23:01.520Z,22.16
2022-08-21T15:25:42.948Z,21.74
2022-08-21T15:28:20.800Z,21.79
2022-08-21T15:30:50.882Z,21.55
2022-08-21T15:33:29.739Z,21.30
2022-08-21T15:36:13.482Z,21.28
2022-08-21T15:39:00.338Z,21.15
2022-08-21T15:41:38.600Z,21.16
2022-08-21T15:44:17.714Z,21.09
2022-08-21T15:46:56.020Z,21.01
2022-08-21T15:49:28.359Z,20.90
2022-08-21T15:51:56.756Z,20.84
2022-08-21T15:54:27.589Z,20.72
2022-08-21T15:56:58.734Z,20.75
2022-08-21T15:59:30.154Z,20.68
2022-08-21T16:02:09.888Z,20.58
2022-08-21T16:04:40.517Z,20.49
2022-08-21T16:07:09.649Z,20.41
2022-08-21T16:09:43.611Z,20.29
2022-08-21T16:12:24.119Z,20.08
2022-08-21T16:15:04.258Z,20.06
2022-08-21T16:17:38.049Z,20.19
2022-08-21T16:20:13.017Z,20.09
2022-08-21T16:22:49.940Z,20.11
2022-08-21T16:25:25.422Z,20.13
2022-08-21T16:28:02.596Z,19.96
2022-08-21T16:30:30.986Z,19.95
2022-08-21T16:33:00.046Z,19.82
2022-08-21T16:35:27.021Z,19.90
2022-08-21T16:37:59.651Z,19.99
2022-08-21T16:40:27.791Z,20.00
2022-08-21T16:43:03.943Z,19.92
2022-08-21T16:45:45.206Z,19.90
2022-08-21T16:48:27.256Z,19.86
2022-08-21T16:51:12.745Z,19.75
2022-08-21T16:54:00.024Z,19.72
2022-08-21T16:56:39.717Z,19.85
2022-08-21T16:59:28.999Z,19.84
2022-08-21T17:02:06.486Z,19.81
2022-08-21T17:04:53.038Z,19.76
2022-08-21T17:07:37.140Z,19.71
2022-08-21T17:10:23.210Z,19.66
2022-08-21T17:13:07.709Z,19.72
2022-08-21T17:15:51.253Z,19.59
2022-08-21T17:18:32.710Z,19.49
2022-08-21T17:21:18.452Z,19.48
2022-08-21T17:23:59.518Z,19.54
2022-08-21T17:26:34.360Z,19.48
2022-08-21T17:29:18.293Z,19.48
2022-08-21T17:32:07.025Z,19.50
2022-08-21T17:34:47.884Z,19.51
2022-08-21T17:37:18.015Z,19.51
2022-08-21T17:40:03.051Z,19.49
2022-08-21T17:42:54.239Z,19.48
2022-08-21T17:45:25.682Z,19.53
2022-08-21T17:48:11.459Z,19.44
2022-08-21T17:50:56.264Z,19.42
2022-08-21T17:53:31.772Z,19.42
2022-08-21T17:56:12.935Z,19.42
2022-08-21T17:58:58.617Z,19.32
2022-08-21T18:01:43.936Z,19.37
2022-08-21T18:04:28.753Z,19.35
2022-08-21T18:07:07.598Z,19.32
2022-08-21T18:09:42.421Z,19.35
2022-08-21T18:12:23.210Z,19.34
2022-08-21T18:15:05.110Z,19.30
2022-08-21T18:17:45.429Z,19.32
2022-08-21T18:20:26.827Z,19.37
2022-08-21T18:23:06.781Z,19.36
2022-08-21T18:25:48.185Z,19.39
2022-08-21T18:28:31.656Z,19.41
2022-08-21T18:31:18.904Z,19.39
2022-08-21T18:33:57.884Z,19.38
2022-08-21T18:36:35.716Z,19.37
2022-08-21T18:39:34.954Z,19.33
2022-08-21T18:42:18.299Z,19.35
2022-08-21T18:44:58.610Z,19.31
2022-08-21T18:47:39.832Z,19.33
2022-08-21T18:50:20.707Z,19.33
2022-08-21T18:53:01.113Z,19.32
2022-08-21T18:55:45.057Z,19.32
2022-08-21T18:58:28.860Z,19.42
2022-08-21T19:01:15.072Z,19.43
2022-08-21T19:03:58.496Z,19.40
2022-08-21T19:06:33.592Z,19.37
2022-08-21T19:09:17.180Z,19.35
2022-08-21T19:11:57.870Z,19.38
2022-08-21T19:14:41.305Z,19.43
2022-08-21T19:17:25.404Z,19.39
2022-08-21T19:20:14.792Z,19.38
2022-08-21T19:23:09.471Z,19.38
2022-08-21T19:25:58.565Z,19.34
2022-08-21T19:29:02.083Z,19.32
